Time;durP1;ratioP1;P1;durP2;ratioP2;P2;SDS_P1;SDS_P2;PMS_P1;PMS_P2;Temp;Humidity;BMP_temperature;BMP_pressure;BME280_temperature;BME280_humidity;BME280_pressure;Samples;Min_cycle;Max_cycle;Signal;HPM_P1;HPM_P2
2023/05/22 00:01:07;;;;;;;0.00;0.00;;;;;;;10.94;66.43;100856.78;6222327;23;20037;-73
2023/05/22 00:03:35;;;;;;;0.00;0.00;;;;;;;11.09;66.64;100872.50;6116601;23;20037;-74
2023/05/22 00:06:01;;;;;;;0.08;0.08;;;;;;;10.97;65.73;100854.34;6094669;23;20016;-74
2023/05/22 00:08:27;;;;;;;0.00;0.00;;;;;;;10.95;66.46;100856.50;6118686;23;20327;-74
2023/05/22 00:10:57;;;;;;;0.00;0.00;;;;;;;10.94;66.27;100857.59;6091492;23;20428;-74
2023/05/22 00:13:27;;;;;;;0.00;0.00;;;;;;;10.93;66.20;100866.88;6094735;23;20022;-74
2023/05/22 00:15:53;;;;;;;0.00;0.00;;;;;;;10.96;66.63;100877.31;6090216;23;20021;-74
2023/05/22 00:18:18;;;;;;;0.00;0.00;;;;;;;10.81;66.46;100858.81;6092490;23;20010;-75
2023/05/22 00:20:49;;;;;;;0.00;0.00;;;;;;;10.91;66.78;100873.72;6044907;23;19998;-75
2023/05/22 00:23:14;;;;;;;0.00;0.00;;;;;;;10.91;66.51;100880.00;6092676;23;20063;-75
2023/05/22 00:25:40;;;;;;;0.00;0.00;;;;;;;10.77;66.70;100857.66;6088608;23;20018;-74
2023/05/22 00:28:05;;;;;;;0.00;0.00;;;;;;;10.71;66.78;100857.88;6094101;23;20006;-74
2023/05/22 00:30:49;;;;;;;0.00;0.00;;;;;;;10.81;66.91;100875.22;6092927;23;20017;-75
2023/05/22 00:33:14;;;;;;;0.00;0.00;;;;;;;10.75;67.10;100861.78;6119300;23;20013;-76
2023/05/22 00:35:40;;;;;;;0.00;0.00;;;;;;;10.69;66.90;100841.75;6069874;23;20010;-75
2023/05/22 00:38:06;;;;;;;0.00;0.00;;;;;;;10.67;66.99;100846.63;6065667;23;20010;-75
2023/05/22 00:40:34;;;;;;;0.00;0.00;;;;;;;10.55;67.23;100838.56;6070581;23;20010;-74
2023/05/22 00:43:06;;;;;;;0.00;0.00;;;;;;;10.61;67.13;100843.00;6092756;23;20315;-76
2023/05/22 00:45:32;;;;;;;0.00;0.00;;;;;;;10.72;66.88;100857.63;6095308;23;20017;-75
2023/05/22 00:48:00;;;;;;;0.00;0.00;;;;;;;10.56;67.22;100834.75;6094507;23;20648;-76
2023/05/22 00:50:27;;;;;;;0.00;0.00;;;;;;;10.55;67.05;100844.03;6114921;23;20014;-74
2023/05/22 00:52:55;;;;;;;0.00;0.00;;;;;;;10.63;67.60;100846.31;6046959;23;20528;-74
2023/05/22 00:55:21;;;;;;;0.00;0.00;;;;;;;10.43;67.19;100814.09;6067389;23;20080;-75
2023/05/22 00:57:46;;;;;;;0.00;0.00;;;;;;;10.50;67.59;100829.47;6044738;23;20333;-74
2023/05/22 01:00:21;;;;;;;0.00;0.00;;;;;;;10.64;67.80;100853.44;6113880;23;20018;-76
2023/05/22 01:02:46;;;;;;;0.00;0.00;;;;;;;10.62;67.64;100854.78;6119983;23;20027;-76
2023/05/22 01:05:16;;;;;;;0.00;0.00;;;;;;;10.58;67.70;100848.16;6088347;23;20590;-75
2023/05/22 01:07:43;;;;;;;0.00;0.00;;;;;;;10.39;67.53;100823.06;6095374;23;20002;-75
2023/05/22 01:10:20;;;;;;;0.00;0.00;;;;;;;10.38;67.50;100821.41;6119317;23;20002;-74
2023/05/22 01:13:10;;;;;;;0.10;0.10;;;;;;;10.55;67.31;100844.03;6092811;23;20112;-75
2023/05/22 01:15:57;;;;;;;0.00;0.00;;;;;;;10.42;67.79;100830.75;6089462;23;20433;-74
2023/05/22 01:18:33;;;;;;;0.00;0.00;;;;;;;10.37;67.89;100830.69;6119230;23;20025;-75
2023/05/22 01:21:20;;;;;;;0.00;0.00;;;;;;;10.42;67.55;100839.75;6114118;23;20084;-74
2023/05/22 01:24:24;;;;;;;0.00;0.00;;;;;;;10.19;67.76;100812.66;6119287;23;20002;-76
2023/05/22 01:27:02;;;;;;;0.00;0.00;;;;;;;10.25;68.00;100822.56;6119078;23;20029;-75
2023/05/22 01:29:49;;;;;;;0.00;0.00;;;;;;;10.30;68.24;100837.13;6115093;23;20032;-75
2023/05/22 01:32:22;;;;;;;0.00;0.00;;;;;;;10.21;68.36;100822.28;6092911;23;20008;-75
2023/05/22 01:34:53;;;;;;;0.00;0.00;;;;;;;10.24;68.36;100838.16;6117037;23;20074;-75
2023/05/22 01:37:21;;;;;;;0.00;0.00;;;;;;;10.06;68.13;100813.84;6120767;23;20450;-76
2023/05/22 01:39:47;;;;;;;0.00;0.00;;;;;;;10.15;68.01;100828.75;6090895;23;20010;-76
2023/05/22 01:42:14;;;;;;;0.00;0.00;;;;;;;10.06;67.77;100819.31;6118803;23;20021;-75
2023/05/22 01:44:43;;;;;;;0.00;0.00;;;;;;;9.99;68.49;100807.75;6094833;23;20084;-75
2023/05/22 01:47:11;;;;;;;0.00;0.00;;;;;;;9.94;68.23;100803.91;6119316;23;20084;-75
2023/05/22 01:49:36;;;;;;;0.00;0.00;;;;;;;9.95;68.57;100808.25;6196272;23;20010;-79
2023/05/22 01:52:18;;;;;;;0.00;0.00;;;;;;;9.93;68.79;100812.34;6090571;23;20321;-74
2023/05/22 01:54:49;;;;;;;0.00;0.00;;;;;;;10.01;68.72;100822.81;6118899;23;20431;-73
2023/05/22 01:57:31;;;;;;;0.00;0.00;;;;;;;9.99;69.14;100826.88;6112099;23;20498;-74
2023/05/22 02:00:08;;;;;;;0.00;0.00;;;;;;;9.98;68.89;100817.88;6090022;23;20009;-75
2023/05/22 02:02:39;;;;;;;0.10;0.10;;;;;;;9.90;69.18;100810.94;6091251;23;20093;-75
2023/05/22 02:05:08;;;;;;;0.00;0.00;;;;;;;9.91;68.67;100812.56;6116824;23;20002;-74
2023/05/22 02:07:38;;;;;;;0.00;0.00;;;;;;;9.98;69.27;100811.59;6067868;23;20063;-75
2023/05/22 02:10:05;;;;;;;0.00;0.00;;;;;;;10.05;68.89;100804.03;6088899;23;20006;-75
2023/05/22 02:12:39;;;;;;;0.05;0.05;;;;;;;10.17;68.71;100793.78;6117052;23;20002;-75
2023/05/22 02:15:06;;;;;;;0.08;0.08;;;;;;;10.25;68.62;100793.34;6063727;23;20025;-74
2023/05/22 02:17:43;;;;;;;0.00;0.00;;;;;;;10.33;68.28;100799.44;6066162;23;20045;-74
2023/05/22 02:20:14;;;;;;;0.00;0.00;;;;;;;10.30;67.76;100785.19;6114302;23;20022;-74
2023/05/22 02:22:44;;;;;;;0.00;0.00;;;;;;;10.38;67.88;100799.53;6090120;23;20006;-75
2023/05/22 02:25:15;;;;;;;0.00;0.00;;;;;;;10.45;68.05;100803.75;6088012;23;20097;-75
2023/05/22 02:27:42;;;;;;;0.10;0.10;;;;;;;10.38;67.82;100802.25;6066746;23;20010;-75
2023/05/22 02:30:08;;;;;;;0.00;0.00;;;;;;;10.30;67.73;100803.53;6088164;23;20422;-75
2023/05/22 02:32:34;;;;;;;0.00;0.00;;;;;;;10.16;67.98;100791.31;6086472;23;20002;-74
2023/05/22 02:35:00;;;;;;;0.00;0.00;;;;;;;10.13;67.89;100803.56;6088222;23;20009;-74
2023/05/22 02:37:25;;;;;;;0.00;0.00;;;;;;;9.99;67.78;100797.66;6091467;23;20032;-74
2023/05/22 02:39:51;;;;;;;0.00;0.00;;;;;;;9.91;68.00;100795.38;6066027;23;20006;-75
2023/05/22 02:42:16;;;;;;;0.00;0.00;;;;;;;9.93;68.27;100802.22;6086519;23;20014;-75
2023/05/22 02:44:41;;;;;;;0.00;0.00;;;;;;;9.93;67.92;100802.22;6089188;23;20013;-74
2023/05/22 02:47:07;;;;;;;0.10;0.10;;;;;;;9.90;68.19;100794.53;6062455;23;20945;-74
2023/05/22 02:49:32;;;;;;;0.00;0.00;;;;;;;9.94;67.97;100800.31;6090083;23;20010;-74
2023/05/22 02:51:57;;;;;;;0.00;0.00;;;;;;;9.93;67.59;100798.69;6086539;23;20026;-75
2023/05/22 02:54:23;;;;;;;0.00;0.00;;;;;;;9.91;67.83;100803.56;6089262;23;20420;-75
2023/05/22 02:56:48;;;;;;;0.00;0.00;;;;;;;9.88;67.25;100802.16;6065465;23;20455;-74
2023/05/22 02:59:15;;;;;;;0.00;0.00;;;;;;;9.84;67.54;100806.50;6063439;23;20014;-74
2023/05/22 03:01:40;;;;;;;0.00;0.00;;;;;;;9.74;67.47;100792.69;6090107;23;20010;-74
2023/05/22 03:04:06;;;;;;;0.00;0.00;;;;;;;9.74;67.50;100801.69;6085552;23;20018;-75
2023/05/22 03:06:31;;;;;;;0.00;0.00;;;;;;;9.69;67.71;100798.06;6064441;23;20085;-74
2023/05/22 03:08:57;;;;;;;0.00;0.00;;;;;;;9.66;67.59;100798.56;6067158;23;20359;-74
2023/05/22 03:11:22;;;;;;;0.10;0.10;;;;;;;9.57;67.55;100800.91;6087568;23;20006;-73
2023/05/22 03:13:47;;;;;;;0.00;0.00;;;;;;;9.48;68.27;100792.31;6090539;23;20050;-74
2023/05/22 03:16:13;;;;;;;0.00;0.00;;;;;;;9.46;68.33;100793.63;6214686;23;20437;-73
2023/05/22 03:18:38;;;;;;;0.00;0.00;;;;;;;9.39;68.58;100793.81;6194032;23;20014;-73
2023/05/22 03:21:04;;;;;;;0.00;0.00;;;;;;;9.33;68.72;100794.78;6063585;23;20048;-74
2023/05/22 03:23:30;;;;;;;0.00;0.00;;;;;;;9.26;69.11;100789.50;6167825;23;20067;-74
2023/05/22 03:25:56;;;;;;;0.00;0.00;;;;;;;9.14;69.18;100781.41;6112116;23;20433;-75
2023/05/22 03:28:21;;;;;;;0.00;0.00;;;;;;;9.08;69.69;100771.47;6112447;23;20129;-75
2023/05/22 03:30:46;;;;;;;0.00;0.00;;;;;;;9.20;69.62;100787.75;6116998;23;20176;-75
2023/05/22 03:33:12;;;;;;;0.00;0.00;;;;;;;9.18;69.43;100785.25;6086142;23;20108;-75
2023/05/22 03:35:37;;;;;;;0.00;0.00;;;;;;;9.15;69.46;100783.03;6087053;23;20014;-75
2023/05/22 03:38:03;;;;;;;0.00;0.00;;;;;;;9.09;69.54;100779.41;6164907;23;20010;-75
2023/05/22 03:40:28;;;;;;;0.00;0.00;;;;;;;9.15;69.64;100779.50;6218530;23;20009;-75
2023/05/22 03:42:54;;;;;;;0.00;0.00;;;;;;;9.24;69.53;100781.56;6193673;23;20083;-75
2023/05/22 03:45:19;;;;;;;0.00;0.00;;;;;;;9.31;69.87;100783.28;6164540;23;20014;-74
2023/05/22 03:47:45;;;;;;;0.00;0.00;;;;;;;9.34;69.42;100793.72;6090369;23;20014;-74
2023/05/22 03:50:10;;;;;;;0.00;0.00;;;;;;;9.42;69.57;100785.94;6113918;23;20018;-74
2023/05/22 03:52:35;;;;;;;0.00;0.00;;;;;;;9.47;69.35;100785.19;6091208;23;20093;-74
2023/05/22 03:55:01;;;;;;;0.00;0.00;;;;;;;9.47;69.23;100785.19;6191218;23;20067;-74
2023/05/22 03:57:26;;;;;;;0.00;0.00;;;;;;;9.51;69.65;100780.88;6064723;23;20387;-74
2023/05/22 03:59:52;;;;;;;0.00;0.00;;;;;;;9.49;69.53;100787.66;6116643;23;20480;-73
2023/05/22 04:02:17;;;;;;;0.00;0.00;;;;;;;9.44;69.67;100788.41;6087351;23;20348;-74
2023/05/22 04:04:45;;;;;;;0.00;0.00;;;;;;;9.38;69.80;100783.97;6090278;23;20006;-74
2023/05/22 04:07:12;;;;;;;0.00;0.00;;;;;;;9.35;70.30;100793.47;6116947;23;20006;-76
2023/05/22 04:09:38;;;;;;;0.00;0.00;;;;;;;9.32;70.57;100782.22;6062328;23;20017;-74
2023/05/22 04:12:04;;;;;;;0.00;0.00;;;;;;;9.38;70.55;100786.69;6114216;22;20013;-74
2023/05/22 04:14:29;;;;;;;0.10;0.10;;;;;;;9.34;70.69;100777.34;6114760;23;20356;-74
2023/05/22 04:16:55;;;;;;;0.00;0.00;;;;;;;9.33;70.17;100781.13;6066970;23;20328;-75
2023/05/22 04:19:20;;;;;;;0.00;0.00;;;;;;;9.28;70.42;100781.88;6085859;23;20006;-74
2023/05/22 04:21:46;;;;;;;0.00;0.00;;;;;;;9.29;70.45;100780.81;6067333;23;20324;-74
2023/05/22 04:24:12;;;;;;;0.00;0.00;;;;;;;9.29;70.37;100777.25;6090996;23;20021;-74
2023/05/22 04:26:38;;;;;;;0.00;0.00;;;;;;;9.25;70.00;100780.47;6111437;23;20009;-75
2023/05/22 04:29:05;;;;;;;0.00;0.00;;;;;;;9.24;70.46;100783.44;6114077;23;20394;-75
2023/05/22 04:31:31;;;;;;;0.00;0.00;;;;;;;9.23;70.39;100779.91;6088165;23;20148;-76
2023/05/22 04:33:58;;;;;;;0.00;0.00;;;;;;;9.34;70.37;100783.63;6066058;23;20029;-75
2023/05/22 04:36:27;;;;;;;0.00;0.00;;;;;;;9.36;70.55;100783.34;6059907;23;20006;-75
2023/05/22 04:38:54;;;;;;;0.00;0.00;;;;;;;9.40;70.18;100784.53;6089075;23;20002;-76
2023/05/22 04:41:21;;;;;;;0.03;0.03;;;;;;;9.43;70.53;100784.03;6088491;23;20021;-75
2023/05/22 04:43:47;;;;;;;0.00;0.00;;;;;;;9.45;69.95;100795.53;6088521;23;20006;-75
2023/05/22 04:46:14;;;;;;;0.00;0.00;;;;;;;9.43;70.16;100794.94;6089329;23;20010;-75
2023/05/22 04:48:40;;;;;;;0.00;0.00;;;;;;;9.40;69.92;100799.03;6084688;23;20089;-76
2023/05/22 04:51:05;;;;;;;0.00;0.00;;;;;;;9.47;70.32;100812.47;6091462;23;20041;-74
2023/05/22 04:53:32;;;;;;;0.00;0.00;;;;;;;9.57;70.21;100812.63;6086235;23;20014;-74
2023/05/22 04:55:58;;;;;;;0.00;0.00;;;;;;;9.57;69.44;100807.19;6119713;23;20021;-72
2023/05/22 04:58:26;;;;;;;0.00;0.00;;;;;;;9.59;69.67;100791.38;6087830;23;20010;-74
2023/05/22 05:00:52;;;;;;;0.00;0.00;;;;;;;9.77;68.91;100811.31;6116395;23;20125;-75
2023/05/22 05:03:18;;;;;;;0.00;0.00;;;;;;;9.87;69.05;100805.13;6089692;23;20024;-75
2023/05/22 05:05:44;;;;;;;0.00;0.00;;;;;;;9.93;68.92;100804.16;6085393;23;20034;-74
2023/05/22 05:08:10;;;;;;;0.00;0.00;;;;;;;9.99;68.60;100808.59;6066108;23;20056;-74
2023/05/22 05:10:36;;;;;;;0.00;0.00;;;;;;;10.01;68.52;100800.16;6067219;23;20006;-74
2023/05/22 05:13:01;;;;;;;0.00;0.00;;;;;;;10.09;68.58;100796.94;6114248;23;20421;-74
2023/05/22 05:15:26;;;;;;;0.00;0.00;;;;;;;10.23;67.72;100800.16;6068334;23;20014;-75
2023/05/22 05:17:52;;;;;;;0.00;0.00;;;;;;;10.34;67.40;100792.91;6086082;23;20837;-74
2023/05/22 05:20:17;;;;;;;0.00;0.00;;;;;;;10.55;67.19;100810.41;6067791;23;20017;-74
2023/05/22 05:22:45;;;;;;;0.00;0.00;;;;;;;10.58;66.95;100799.75;6087523;23;20124;-75
2023/05/22 05:25:11;;;;;;;0.00;0.00;;;;;;;10.75;66.17;100807.06;6116459;23;20013;-75
2023/05/22 05:27:36;;;;;;;0.00;0.00;;;;;;;10.80;66.14;100813.38;6118051;23;20014;-75
2023/05/22 05:30:03;;;;;;;0.00;0.00;;;;;;;10.81;65.53;100803.28;6087661;23;20010;-74
2023/05/22 05:32:29;;;;;;;0.00;0.00;;;;;;;10.86;65.61;100811.53;6090035;23;20064;-74
2023/05/22 05:34:55;;;;;;;0.00;0.00;;;;;;;10.95;65.64;100820.94;6063913;23;20740;-74
2023/05/22 05:37:20;;;;;;;0.00;0.00;;;;;;;11.06;64.95;100810.09;6090033;23;20056;-75
2023/05/22 05:39:46;;;;;;;0.00;0.00;;;;;;;11.16;64.56;100826.59;6113502;23;20321;-74
2023/05/22 05:42:11;;;;;;;0.00;0.00;;;;;;;11.30;64.79;100825.09;6091512;23;20074;-75
2023/05/22 05:44:37;;;;;;;0.00;0.00;;;;;;;11.49;63.95;100821.94;6090859;23;20013;-74
2023/05/22 05:47:02;;;;;;;0.00;0.00;;;;;;;11.61;63.73;100822.56;6062919;23;20013;-74
2023/05/22 05:49:28;;;;;;;0.00;0.00;;;;;;;11.68;63.18;100831.41;6044953;23;20332;-75
2023/05/22 05:51:54;;;;;;;0.00;0.00;;;;;;;11.76;62.80;100829.25;6086706;23;20099;-75
2023/05/22 05:54:20;;;;;;;0.10;0.10;;;;;;;11.88;62.69;100830.72;6115287;23;20089;-75
2023/05/22 05:56:45;;;;;;;0.03;0.03;;;;;;;12.00;62.83;100838.75;6063040;23;20017;-75
2023/05/22 05:59:11;;;;;;;0.00;0.00;;;;;;;12.16;62.21;100827.84;6041091;23;20010;-75
2023/05/22 06:01:38;;;;;;;0.00;0.00;;;;;;;12.35;62.02;100836.44;6090804;23;20083;-77
2023/05/22 06:04:04;;;;;;;0.00;0.00;;;;;;;12.48;61.72;100840.59;6086267;23;20010;-76
2023/05/22 06:06:41;;;;;;;0.03;0.03;;;;;;;12.60;61.13;100826.66;6065447;23;20014;-75
2023/05/22 06:09:07;;;;;;;0.00;0.00;;;;;;;12.77;60.55;100837.41;6086849;23;20029;-75
2023/05/22 06:11:33;;;;;;;0.00;0.00;;;;;;;12.86;60.25;100830.28;6090458;23;20010;-73
2023/05/22 06:13:59;;;;;;;0.00;0.00;;;;;;;12.96;59.70;100835.78;6114486;23;20708;-74
2023/05/22 06:16:25;;;;;;;0.00;0.00;;;;;;;13.02;59.46;100839.38;6111061;23;20006;-73
2023/05/22 06:18:51;;;;;;;0.00;0.00;;;;;;;13.05;59.02;100834.19;6066385;23;20020;-74
2023/05/22 06:21:20;;;;;;;0.00;0.00;;;;;;;13.27;59.08;100846.81;6110574;23;20476;-75
2023/05/22 06:23:46;;;;;;;0.03;0.03;;;;;;;13.34;58.80;100847.41;6114988;23;20474;-74
2023/05/22 06:26:12;;;;;;;0.08;0.08;;;;;;;13.44;58.73;100855.63;6110433;23;20063;-74
2023/05/22 06:28:38;;;;;;;0.00;0.00;;;;;;;13.57;58.68;100850.69;6116639;23;20033;-75
2023/05/22 06:31:03;;;;;;;0.00;0.00;;;;;;;13.70;58.30;100860.31;6112908;23;20022;-74
2023/05/22 06:33:33;;;;;;;0.00;0.00;;;;;;;13.61;57.68;100847.13;6110996;23;20010;-74
2023/05/22 06:35:58;;;;;;;0.00;0.00;;;;;;;13.59;57.96;100848.50;6115211;23;20016;-74
2023/05/22 06:38:24;;;;;;;0.00;0.00;;;;;;;13.87;57.79;100879.25;6086909;23;20014;-74
2023/05/22 06:40:49;;;;;;;0.00;0.00;;;;;;;13.90;57.31;100878.69;6114004;23;20063;-73
2023/05/22 06:43:14;;;;;;;0.00;0.00;;;;;;;13.89;57.38;100868.81;6111580;23;20032;-73
2023/05/22 06:45:40;;;;;;;0.00;0.00;;;;;;;13.82;57.63;100851.78;6091385;23;20033;-73
2023/05/22 06:48:05;;;;;;;0.00;0.00;;;;;;;14.14;57.27;100893.50;6066819;23;20328;-74
2023/05/22 06:50:31;;;;;;;0.00;0.00;;;;;;;14.14;57.11;100895.44;6111318;23;20006;-74
2023/05/22 06:52:56;;;;;;;0.00;0.00;;;;;;;14.02;56.78;100897.63;6111550;23;20022;-74
2023/05/22 06:55:22;;;;;;;0.00;0.00;;;;;;;13.95;57.17;100892.44;6083964;23;20040;-76
2023/05/22 06:57:47;;;;;;;0.00;0.00;;;;;;;13.89;56.76;100880.63;6139124;23;20040;-75
2023/05/22 07:00:21;;;;;;;0.00;0.00;;;;;;;14.12;56.74;100887.44;6111009;23;20473;-74
2023/05/22 07:02:48;;;;;;;0.00;0.00;;;;;;;14.51;56.28;100899.72;6090835;23;20442;-73
2023/05/22 07:05:14;;;;;;;0.00;0.00;;;;;;;14.82;55.81;100896.84;6116372;23;20420;-75
2023/05/22 07:07:40;;;;;;;0.00;0.00;;;;;;;15.15;54.72;100899.97;6111156;23;20016;-74
2023/05/22 07:10:06;;;;;;;0.00;0.00;;;;;;;15.44;54.30;100908.31;6090907;23;20584;-74
2023/05/22 07:12:31;;;;;;;0.00;0.00;;;;;;;15.56;54.21;100898.88;6108918;23;20036;-75
2023/05/22 07:14:58;;;;;;;0.00;0.00;;;;;;;15.69;53.74;100893.50;6147524;23;20034;-74
2023/05/22 07:17:24;;;;;;;0.00;0.00;;;;;;;15.82;53.19;100891.22;6085742;23;20032;-74
2023/05/22 07:19:50;;;;;;;0.00;0.00;;;;;;;16.03;52.70;100889.09;6111575;23;20010;-74
2023/05/22 07:22:15;;;;;;;0.00;0.00;;;;;;;16.25;52.11;100890.50;6091379;23;20703;-75
2023/05/22 07:24:46;;;;;;;0.00;0.00;;;;;;;16.40;51.84;100890.34;6114135;23;20346;-75
2023/05/22 07:27:11;;;;;;;0.00;0.00;;;;;;;16.44;51.45;100888.66;6116109;23;19997;-73
2023/05/22 07:29:37;;;;;;;0.00;0.00;;;;;;;16.62;50.84;100891.72;6111705;23;20018;-73
2023/05/22 07:32:03;;;;;;;0.00;0.00;;;;;;;16.82;50.61;100894.25;6090525;23;20555;-73
2023/05/22 07:34:32;;;;;;;0.00;0.00;;;;;;;17.05;50.35;100900.03;6138405;23;20006;-74
2023/05/22 07:37:10;;;;;;;0.00;0.00;;;;;;;17.17;49.44;100899.59;6136605;23;20010;-74
2023/05/22 07:39:35;;;;;;;0.00;0.00;;;;;;;17.21;49.34;100875.75;6090355;23;20025;-74
2023/05/22 07:42:01;;;;;;;0.00;0.00;;;;;;;17.56;48.96;100899.25;6111461;23;20006;-74
2023/05/22 07:44:27;;;;;;;0.00;0.00;;;;;;;17.80;48.68;100909.38;6118482;23;20063;-73
2023/05/22 07:46:54;;;;;;;0.00;0.00;;;;;;;17.84;47.92;100904.84;6109625;23;20080;-74
2023/05/22 07:49:20;;;;;;;0.00;0.00;;;;;;;17.99;48.44;100927.88;6114154;23;20033;-73
2023/05/22 07:51:46;;;;;;;0.00;0.00;;;;;;;17.99;47.78;100922.34;6111749;23;20059;-73
2023/05/22 07:54:14;;;;;;;0.00;0.00;;;;;;;17.94;48.19;100921.31;6091198;23;20010;-73
2023/05/22 07:56:44;;;;;;;0.00;0.00;;;;;;;17.91;47.63;100926.63;6113452;23;20305;-74
2023/05/22 07:59:10;;;;;;;0.00;0.00;;;;;;;17.74;47.61;100933.53;6042240;23;20013;-75
2023/05/22 08:01:37;;;;;;;0.00;0.00;;;;;;;17.55;47.75;100930.81;6103958;23;20060;-77
2023/05/22 08:04:04;;;;;;;0.00;0.00;;;;;;;17.48;48.22;100930.34;6116187;23;20037;-75
2023/05/22 08:06:29;;;;;;;0.00;0.00;;;;;;;17.39;48.31;100932.97;6085187;23;20447;-75
2023/05/22 08:08:55;;;;;;;0.00;0.00;;;;;;;17.21;48.02;100926.31;6114768;23;20002;-75
2023/05/22 08:11:21;;;;;;;0.00;0.00;;;;;;;17.07;48.13;100940.06;6087818;23;20005;-76
2023/05/22 08:13:47;;;;;;;0.00;0.00;;;;;;;16.96;48.38;100934.97;6095404;23;20026;-75
2023/05/22 08:16:13;;;;;;;0.00;0.00;;;;;;;16.87;48.47;100952.19;6107940;23;20002;-75
2023/05/22 08:18:38;;;;;;;0.00;0.00;;;;;;;16.71;48.77;100943.25;6113442;23;20087;-75
2023/05/22 08:21:04;;;;;;;0.00;0.00;;;;;;;16.66;48.97;100942.47;6108876;23;20091;-75
2023/05/22 08:23:31;;;;;;;0.00;0.00;;;;;;;16.71;49.33;100948.78;6090333;23;20093;-75
2023/05/22 08:25:57;;;;;;;0.00;0.00;;;;;;;16.78;48.94;100940.13;6112120;23;20055;-74
2023/05/22 08:28:22;;;;;;;0.00;0.00;;;;;;;16.82;48.88;100941.19;6115607;23;20002;-75
2023/05/22 08:30:47;;;;;;;0.00;0.00;;;;;;;17.00;49.05;100950.66;6112795;23;20088;-74
2023/05/22 08:33:13;;;;;;;0.00;0.00;;;;;;;17.13;48.47;100946.34;6109050;23;20022;-75
2023/05/22 08:35:39;;;;;;;0.00;0.00;;;;;;;17.15;48.56;100952.38;6090847;23;20010;-75
2023/05/22 08:38:04;;;;;;;0.00;0.00;;;;;;;17.24;48.24;100953.38;6059206;23;20610;-76
2023/05/22 08:40:52;;;;;;;0.00;0.00;;;;;;;17.45;48.46;100955.84;6110373;23;20020;-76
2023/05/22 08:43:20;;;;;;;0.00;0.00;;;;;;;17.43;48.27;100949.78;6112346;23;20018;-77
2023/05/22 08:45:51;;;;;;;0.00;0.00;;;;;;;17.37;47.77;100945.44;6109019;23;20010;-76
2023/05/22 08:48:20;;;;;;;0.00;0.00;;;;;;;17.54;48.31;100967.03;6115417;23;20002;-76
2023/05/22 08:50:56;;;;;;;0.00;0.00;;;;;;;17.59;48.21;100951.16;6110463;23;20515;-79
2023/05/22 08:53:22;;;;;;;0.00;0.00;;;;;;;17.82;48.11;100956.91;6107693;23;20017;-75
2023/05/22 08:55:48;;;;;;;0.00;0.00;;;;;;;17.98;47.45;100953.94;6216289;23;20010;-75
2023/05/22 08:58:14;;;;;;;0.00;0.00;;;;;;;18.22;47.44;100956.53;6061013;23;20075;-74
2023/05/22 09:00:40;;;;;;;0.00;0.00;;;;;;;18.45;46.97;100958.28;6111825;23;20033;-75
2023/05/22 09:03:12;;;;;;;0.00;0.00;;;;;;;18.75;46.80;100950.53;6059587;23;20006;-75
2023/05/22 09:05:39;;;;;;;0.00;0.00;;;;;;;19.23;45.75;100954.81;6110321;23;20010;-75
2023/05/22 09:08:06;;;;;;;0.00;0.00;;;;;;;19.31;44.79;100954.03;6115926;23;20006;-75
2023/05/22 09:10:32;;;;;;;0.00;0.00;;;;;;;19.36;44.88;100965.03;6109552;23;20006;-73
2023/05/22 09:13:25;;;;;;;0.00;0.00;;;;;;;19.39;44.26;100968.28;6112386;23;20024;-77
2023/05/22 09:15:51;;;;;;;0.00;0.00;;;;;;;19.78;43.94;100969.59;6087001;23;20014;-75
2023/05/22 09:18:16;;;;;;;0.00;0.00;;;;;;;20.30;43.38;100969.97;6114030;23;20083;-74
2023/05/22 09:20:41;;;;;;;0.00;0.00;;;;;;;20.68;42.05;100958.38;6106545;23;20030;-75
2023/05/22 09:23:16;;;;;;;0.00;0.00;;;;;;;21.14;41.57;100955.41;6065708;23;20398;-74
2023/05/22 09:25:47;;;;;;;0.00;0.00;;;;;;;21.57;40.94;100949.06;6083026;23;20002;-75
2023/05/22 09:28:13;;;;;;;0.00;0.00;;;;;;;22.09;40.56;100962.09;6113508;23;20068;-73
2023/05/22 09:30:38;;;;;;;0.00;0.00;;;;;;;22.54;39.75;100958.03;6110954;23;20013;-74
2023/05/22 09:33:07;;;;;;;0.00;0.00;;;;;;;22.98;39.22;100939.09;6064088;23;20332;-74
2023/05/22 09:35:35;;;;;;;0.00;0.00;;;;;;;23.49;38.03;100964.19;6087994;23;20010;-73
2023/05/22 09:38:00;;;;;;;0.00;0.00;;;;;;;23.49;37.12;100959.44;6087123;23;20101;-74
2023/05/22 09:40:26;;;;;;;0.00;0.00;;;;;;;23.49;36.74;100965.00;6088066;23;20488;-74
2023/05/22 09:42:51;;;;;;;0.00;0.00;;;;;;;23.62;37.19;100957.50;6060747;23;20314;-75
2023/05/22 09:45:20;;;;;;;0.00;0.00;;;;;;;23.76;36.50;100967.56;6067264;23;20017;-74
2023/05/22 09:47:49;;;;;;;0.00;0.00;;;;;;;23.78;36.55;100965.28;6110442;23;20005;-75
2023/05/22 09:50:16;;;;;;;0.00;0.00;;;;;;;23.71;35.93;100963.00;6111770;23;20006;-75
2023/05/22 09:52:43;;;;;;;0.00;0.00;;;;;;;23.65;35.46;100968.00;6064385;23;20010;-74
2023/05/22 09:55:09;;;;;;;0.00;0.00;;;;;;;23.53;35.69;100954.78;6112849;23;20325;-76
2023/05/22 09:57:44;;;;;;;0.00;0.00;;;;;;;23.47;34.82;100970.13;6088137;23;20104;-75
2023/05/22 10:00:16;;;;;;;0.00;0.00;;;;;;;23.38;34.21;100969.38;6085442;23;20010;-75
2023/05/22 10:02:45;;;;;;;0.00;0.00;;;;;;;23.44;34.75;100968.03;6091472;23;20006;-75
2023/05/22 10:05:12;;;;;;;0.00;0.00;;;;;;;23.39;33.85;100982.16;6087496;23;20006;-75
2023/05/22 10:07:54;;;;;;;0.00;0.00;;;;;;;23.42;34.47;100964.75;6089318;23;19998;-74
2023/05/22 10:10:25;;;;;;;0.00;0.00;;;;;;;23.42;33.63;100978.72;6113419;23;20010;-75
2023/05/22 10:13:00;;;;;;;0.00;0.00;;;;;;;23.41;33.79;100971.50;6091919;23;20014;-75
2023/05/22 10:15:26;;;;;;;0.00;0.00;;;;;;;23.39;34.25;100971.00;6239972;22;20103;-74
2023/05/22 10:17:56;;;;;;;0.00;0.00;;;;;;;23.67;34.44;100973.22;6243906;22;20090;-77
2023/05/22 10:20:25;;;;;;;0.00;0.00;;;;;;;24.04;33.95;100977.03;6269699;22;20006;-76
2023/05/22 10:22:52;;;;;;;0.00;0.00;;;;;;;24.72;33.35;100975.78;6245999;22;20003;-74
2023/05/22 10:25:20;;;;;;;0.00;0.00;;;;;;;24.99;32.39;100978.22;6241652;22;20459;-75
2023/05/22 10:27:46;;;;;;;0.00;0.00;;;;;;;25.03;32.22;100979.16;6242578;22;20000;-74
2023/05/22 10:30:19;;;;;;;0.00;0.00;;;;;;;25.14;31.39;100983.06;6269919;22;20003;-75
2023/05/22 10:33:10;;;;;;;0.00;0.00;;;;;;;25.47;31.82;100973.72;6245507;22;20003;-74
2023/05/22 10:35:47;;;;;;;0.00;0.00;;;;;;;25.88;31.45;100973.69;6267258;22;20031;-75
2023/05/22 10:38:35;;;;;;;0.00;0.00;;;;;;;26.35;31.26;100974.97;6243782;22;20000;-73
2023/05/22 10:41:02;;;;;;;0.00;0.00;;;;;;;26.53;30.36;100970.59;6269824;22;20000;-74
2023/05/22 10:43:32;;;;;;;0.00;0.00;;;;;;;26.52;30.54;100973.78;6271439;22;20010;-74
2023/05/22 10:46:03;;;;;;;0.00;0.00;;;;;;;26.56;30.44;100969.91;6241005;22;20072;-74
2023/05/22 10:48:35;;;;;;;0.00;0.00;;;;;;;26.78;30.28;100964.81;6242446;22;20395;-74
2023/05/22 10:51:06;;;;;;;0.00;0.00;;;;;;;27.17;29.85;100960.16;6216597;22;20038;-75
2023/05/22 10:53:32;;;;;;;0.00;0.00;;;;;;;27.72;29.69;100961.31;6269894;22;20008;-75
2023/05/22 10:56:01;;;;;;;0.00;0.00;;;;;;;27.85;28.50;100943.09;6218085;22;20008;-76
2023/05/22 10:58:32;;;;;;;0.00;0.00;;;;;;;28.08;28.71;100957.22;6268234;22;20007;-76
2023/05/22 11:01:10;;;;;;;0.00;0.00;;;;;;;28.19;27.66;100958.22;6272012;22;20053;-78
2023/05/22 11:03:54;;;;;;;0.00;0.00;;;;;;;28.50;26.48;100956.34;6242205;22;20015;-76
2023/05/22 11:06:41;;;;;;;0.00;0.00;;;;;;;28.79;26.01;100950.41;6241637;22;20377;-75
2023/05/22 11:09:31;;;;;;;0.00;0.00;;;;;;;28.58;26.24;100957.28;6244479;22;20008;-77
2023/05/22 11:12:20;;;;;;;0.00;0.00;;;;;;;29.72;25.28;100945.22;6225468;22;20042;-77
2023/05/22 11:14:56;;;;;;;0.00;0.00;;;;;;;30.26;24.55;100951.44;6155255;22;20089;-78
2023/05/22 11:17:28;;;;;;;0.00;0.00;;;;;;;30.62;24.73;100952.59;6114154;23;20378;-76
2023/05/22 11:20:04;;;;;;;0.00;0.00;;;;;;;31.48;23.69;100954.31;6113947;23;20012;-76
2023/05/22 11:22:33;;;;;;;0.00;0.00;;;;;;;31.99;23.11;100952.47;6114727;23;20006;-75
2023/05/22 11:25:01;;;;;;;0.00;0.00;;;;;;;32.74;21.84;100950.94;6088767;23;20029;-75
2023/05/22 11:27:28;;;;;;;0.00;0.00;;;;;;;32.65;21.72;100945.66;6089662;23;20093;-77
2023/05/22 11:29:55;;;;;;;0.00;0.00;;;;;;;32.33;20.71;100952.13;6115241;23;20051;-75
2023/05/22 11:32:22;;;;;;;0.00;0.00;;;;;;;31.64;21.15;100948.34;6086097;23;20006;-75